Time;durP1;ratioP1;P1;durP2;ratioP2;P2;SDS_P1;SDS_P2;PMS_P1;PMS_P2;Temp;Humidity;BMP_temperature;BMP_pressure;BME280_temperature;BME280_humidity;BME280_pressure;Samples;Min_cycle;Max_cycle;Signal;HPM_P1;HPM_P2
2023/06/03 00:00:35;;;;;;;;;8.75;7.50;;;;;18.48;50.07;100530.22;146629;571;46010;-63
2023/06/03 00:03:41;;;;;;;;;7.50;7.50;;;;;18.44;50.70;100518.78;146626;574;45016;-65
2023/06/03 00:06:35;;;;;;;;;6.75;6.75;;;;;18.40;51.13;100514.31;146629;581;45020;-63
2023/06/03 00:09:36;;;;;;;;;7.25;6.00;;;;;18.35;51.29;100523.91;146628;685;46014;-62
2023/06/03 00:12:39;;;;;;;;;5.50;5.00;;;;;18.35;51.42;100517.72;146628;679;47010;-63
2023/06/03 00:15:34;;;;;;;;;10.00;7.00;;;;;18.39;51.53;100522.19;146624;566;46013;-63
2023/06/03 00:18:30;;;;;;;;;7.75;5.75;;;;;18.46;51.51;100526.69;146630;658;45029;-62
2023/06/03 00:21:30;;;;;;;;;8.50;8.50;;;;;18.43;51.18;100524.87;146626;581;45016;-63
2023/06/03 00:24:37;;;;;;;;;8.00;7.00;;;;;18.40;50.95;100522.22;146629;718;46010;-63
2023/06/03 00:27:37;;;;;;;;;8.75;7.00;;;;;18.43;51.12;100521.38;146627;646;45036;-63
2023/06/03 00:30:41;;;;;;;;;7.25;5.50;;;;;18.49;50.73;100515.34;146625;577;46015;-64
2023/06/03 00:33:36;;;;;;;;;7.00;6.25;;;;;18.52;50.82;100520.66;146626;647;46010;-63
2023/06/03 00:36:44;;;;;;;;;7.00;5.50;;;;;15.74;50.46;100046.78;146632;659;45010;-63
2023/06/03 00:39:58;;;;;;;;;6.50;5.25;;;;;18.51;50.63;100524.13;146627;579;45014;-63
2023/06/03 00:42:51;;;;;;;;;5.75;5.75;;;;;18.45;51.50;100515.31;146621;603;46020;-62
2023/06/03 00:45:53;;;;;;;;;8.00;6.00;;;;;18.40;51.23;100532.72;146623;661;45017;-63
2023/06/03 00:49:05;;;;;;;;;7.75;6.00;;;;;15.86;50.91;100088.84;146623;662;46020;-63
2023/06/03 00:52:28;;;;;;;;;7.50;6.50;;;;;18.42;50.70;100520.50;146607;565;46015;-62
2023/06/03 00:55:25;;;;;;;;;6.00;5.25;;;;;18.48;51.16;100519.72;146607;616;46020;-64
2023/06/03 00:58:32;;;;;;;;;5.75;5.00;;;;;18.50;50.46;100523.22;146606;578;46016;-63
2023/06/03 01:01:39;;;;;;;;;6.50;6.25;;;;;18.48;50.32;100524.09;146606;653;47014;-63
2023/06/03 01:04:33;;;;;;;;;7.50;6.75;;;;;18.42;49.97;100520.50;146606;565;46016;-64
2023/06/03 01:08:07;;;;;;;;;8.00;7.00;;;;;18.39;49.52;100525.69;146606;692;45021;-64
2023/06/03 01:11:52;;;;;;;;;7.25;7.25;;;;;18.41;50.38;100531.87;146608;563;46030;-63
2023/06/03 01:15:19;;;;;;;;;8.00;6.75;;;;;18.38;50.13;100537.06;146607;661;46011;-63
2023/06/03 01:18:33;;;;;;;;;5.00;4.75;;;;;18.41;50.54;100529.25;146605;574;46012;-64
2023/06/03 01:22:16;;;;;;;;;6.25;5.00;;;;;15.73;49.74;100072.88;146609;569;45021;-64
2023/06/03 01:25:28;;;;;;;;;8.00;7.00;;;;;15.38;50.21;100025.97;146604;633;46034;-64
2023/06/03 01:28:27;;;;;;;;;6.75;6.75;;;;;18.22;50.56;100525.44;146605;623;46037;-63
2023/06/03 01:31:28;;;;;;;;;6.00;6.00;;;;;18.16;50.79;100541.06;146604;635;46016;-63
2023/06/03 01:34:30;;;;;;;;;6.25;6.00;;;;;18.12;51.36;100539.22;146607;575;46020;-64
2023/06/03 01:37:51;;;;;;;;;7.00;7.00;;;;;18.12;51.56;100540.97;146604;615;46016;-64
2023/06/03 01:40:58;;;;;;;;;9.00;6.00;;;;;18.12;51.43;100546.22;146609;686;46020;-64
2023/06/03 01:43:51;;;;;;;;;9.00;6.00;;;;;18.05;51.74;100531.25;146605;569;46016;-64
2023/06/03 01:47:05;;;;;;;;;8.50;6.25;;;;;17.94;52.04;100531.03;146607;569;46032;-62
2023/06/03 01:50:06;;;;;;;;;8.25;7.00;;;;;17.86;52.49;100538.78;146605;685;46016;-63
2023/06/03 01:53:13;;;;;;;;;7.50;7.50;;;;;14.95;52.24;100048.53;146606;583;46010;-63
2023/06/03 01:56:05;;;;;;;;;6.25;6.25;;;;;17.70;53.36;100531.44;146606;564;46016;-63
2023/06/03 01:59:17;;;;;;;;;8.00;7.25;;;;;17.60;53.74;100529.47;146609;576;46010;-64
2023/06/03 02:02:11;;;;;;;;;8.25;8.00;;;;;17.48;53.39;100528.41;146604;577;46914;-62
2023/06/03 02:05:16;;;;;;;;;6.25;6.25;;;;;17.46;53.23;100524.84;146609;574;46010;-63
2023/06/03 02:08:20;;;;;;;;;10.00;7.00;;;;;17.46;53.26;100521.34;146607;565;46035;-63
2023/06/03 02:11:34;;;;;;;;;7.50;6.50;;;;;17.45;53.57;100523.09;146611;682;46010;-63
2023/06/03 02:14:28;;;;;;;;;8.75;7.25;;;;;17.45;53.46;100516.97;146604;631;47012;-63
2023/06/03 02:17:45;;;;;;;;;5.50;5.00;;;;;17.46;53.80;100518.72;146608;651;46020;-65
2023/06/03 02:20:50;;;;;;;;;8.75;7.00;;;;;14.66;53.09;100040.06;146605;570;46012;-64
2023/06/03 02:23:56;;;;;;;;;9.00;8.25;;;;;17.44;53.29;100523.91;146605;692;47010;-66
2023/06/03 02:27:08;;;;;;;;;11.00;7.75;;;;;17.44;54.22;100521.31;146606;652;47012;-65
2023/06/03 02:30:04;;;;;;;;;5.25;5.25;;;;;17.40;54.51;100531.72;146607;720;46021;-66
2023/06/03 02:33:10;;;;;;;;;9.75;7.25;;;;;17.38;54.02;100539.53;146604;701;46016;-65
2023/06/03 02:36:19;;;;;;;;;7.00;6.00;;;;;17.35;54.07;100536.84;146607;654;47010;-66
2023/06/03 02:39:34;;;;;;;;;6.75;6.75;;;;;17.41;53.83;100539.59;146604;645;47014;-65
2023/06/03 02:42:48;;;;;;;;;5.50;4.25;;;;;15.02;53.52;100118.34;146609;663;46010;-66
2023/06/03 02:45:47;;;;;;;;;8.50;8.00;;;;;17.49;54.39;100537.12;146604;566;46017;-64
2023/06/03 02:48:40;;;;;;;;;7.00;6.00;;;;;17.53;54.59;100545.09;146610;579;46010;-64
2023/06/03 02:52:02;;;;;;;;;8.00;6.25;;;;;17.61;54.16;100545.25;146604;567;46017;-64
2023/06/03 02:55:08;;;;;;;;;;;;;;;;;;;;;
2023/06/03 02:58:06;;;;;;;;;5.00;5.00;;;;;17.53;54.34;100549.44;146605;562;46012;-65
2023/06/03 03:01:14;;;;;;;;;5.25;4.50;;;;;17.45;54.31;100543.19;146605;564;46021;-65
2023/06/03 03:04:13;;;;;;;;;10.00;9.00;;;;;17.41;54.55;100549.19;146607;575;46012;-64
2023/06/03 03:07:08;;;;;;;;;10.00;8.00;;;;;17.33;54.06;100550.78;146607;641;46020;-65
2023/06/03 03:10:41;;;;;;;;;10.50;7.75;;;;;14.54;53.13;100090.19;146603;572;46016;-65
2023/06/03 03:13:36;;;;;;;;;7.75;7.75;;;;;17.22;54.03;100561.91;146608;581;46020;-64
2023/06/03 03:16:49;;;;;;;;;7.25;5.75;;;;;14.30;53.65;100069.59;146603;658;46017;-65
2023/06/03 03:19:50;;;;;;;;;8.75;8.50;;;;;17.16;54.30;100568.75;146608;602;46010;-65
2023/06/03 03:22:57;;;;;;;;;7.50;6.75;;;;;17.19;53.52;100581.91;146605;569;46016;-65
2023/06/03 03:26:00;;;;;;;;;7.00;5.00;;;;;17.23;53.43;100579.41;146605;637;47010;-66
2023/06/03 03:29:12;;;;;;;;;6.00;6.00;;;;;17.29;53.19;100583.91;146604;575;46013;-64
2023/06/03 03:32:36;;;;;;;;;6.75;6.00;;;;;14.57;52.53;100099.84;146608;566;46010;-64
2023/06/03 03:35:43;;;;;;;;;;;;;;;;;;;;;
2023/06/03 03:38:39;;;;;;;;;8.00;8.00;;;;;17.41;53.98;100589.37;146609;596;46010;-64
2023/06/03 03:41:46;;;;;;;;;9.75;8.00;;;;;15.07;53.34;100187.22;146607;569;46012;-64
2023/06/03 03:44:41;;;;;;;;;9.00;8.00;;;;;17.49;55.04;100594.81;146611;711;45031;-64
2023/06/03 03:47:49;;;;;;;;;10.75;8.75;;;;;17.53;54.33;100600.13;146605;614;46016;-64
2023/06/03 03:51:12;;;;;;;;;11.25;9.25;;;;;14.76;53.83;100118.59;146609;737;46020;-64
2023/06/03 03:54:22;;;;;;;;;8.50;6.00;;;;;17.57;54.57;100608.06;146604;656;46916;-64
2023/06/03 03:57:36;;;;;;;;;9.00;7.00;;;;;17.60;55.09;100609.03;146607;585;46010;-62
2023/06/03 04:00:28;;;;;;;;;7.00;6.00;;;;;17.65;55.35;100611.75;146605;712;47014;-63
2023/06/03 04:03:37;;;;;;;;;;;;;;;;;;;;;
2023/06/03 04:06:43;;;;;;;;;8.00;8.00;;;;;17.77;54.35;100614.66;146605;595;46017;-63
2023/06/03 04:09:44;;;;;;;;;8.75;6.25;;;;;17.86;55.27;100620.09;146610;716;46010;-62
2023/06/03 04:12:51;;;;;;;;;9.25;7.25;;;;;17.97;55.51;100623.81;146605;592;46916;-63
2023/06/03 04:15:46;;;;;;;;;7.75;6.50;;;;;18.11;54.97;100618.81;146608;603;47010;-63
2023/06/03 04:18:53;;;;;;;;;7.00;7.00;;;;;18.24;54.46;100627.81;146602;640;47016;-62
2023/06/03 04:21:48;;;;;;;;;7.50;7.00;;;;;18.39;55.00;100635.97;146606;567;47014;-64
2023/06/03 04:24:52;;;;;;;;;10.75;7.75;;;;;18.52;55.22;100631.81;146607;564;46012;-64
2023/06/03 04:27:44;;;;;;;;;9.25;9.00;;;;;18.66;54.47;100638.19;146602;567;46916;-64
2023/06/03 04:30:37;;;;;;;;;9.00;7.00;;;;;18.75;54.56;100637.47;146605;571;47014;-64
2023/06/03 04:33:32;;;;;;;;;8.50;7.00;;;;;18.86;54.91;100641.16;146609;718;46010;-65
2023/06/03 04:36:30;;;;;;;;;11.25;10.25;;;;;18.92;53.97;100638.62;146607;677;46012;-63
2023/06/03 04:39:42;;;;;;;;;9.00;9.00;;;;;18.95;54.15;100632.56;146608;620;46032;-63
2023/06/03 04:42:37;;;;;;;;;9.75;8.75;;;;;18.97;55.04;100636.09;146605;635;46033;-63
2023/06/03 04:45:33;;;;;;;;;7.25;6.75;;;;;19.01;55.39;100634.41;146608;610;45039;-64
2023/06/03 04:48:45;;;;;;;;;10.50;8.25;;;;;19.06;55.05;100645.84;146603;569;46016;-65
2023/06/03 04:51:42;;;;;;;;;10.75;8.00;;;;;19.08;55.27;100654.66;146629;631;46010;-63
2023/06/03 04:55:14;;;;;;;;;11.00;6.50;;;;;16.42;53.07;100190.19;146626;684;45916;-63
2023/06/03 04:58:19;;;;;;;;;7.25;7.25;;;;;19.12;53.63;100644.19;146627;644;45021;-63
2023/06/03 05:01:22;;;;;;;;;10.50;9.25;;;;;19.20;54.24;100652.22;146624;570;45016;-64
2023/06/03 05:04:22;;;;;;;;;9.50;8.00;;;;;19.24;54.72;100640.00;146628;643;45021;-64
2023/06/03 05:07:21;;;;;;;;;8.00;8.00;;;;;19.25;54.27;100642.66;146626;714;45016;-65
2023/06/03 05:10:31;;;;;;;;;8.75;8.50;;;;;19.29;54.70;100644.47;146629;632;45014;-64
2023/06/03 05:13:34;;;;;;;;;8.75;7.50;;;;;16.66;54.04;100170.53;146626;635;45016;-65
2023/06/03 05:16:28;;;;;;;;;10.50;9.75;;;;;19.47;53.30;100643.84;146628;601;45010;-63
2023/06/03 05:19:23;;;;;;;;;11.25;9.00;;;;;19.62;51.90;100651.94;146620;642;46916;-64
2023/06/03 05:22:29;;;;;;;;;9.25;8.00;;;;;19.87;52.37;100649.63;146629;581;45020;-63
2023/06/03 05:25:28;;;;;;;;;9.00;7.00;;;;;20.27;49.00;100650.06;146628;642;45012;-63
2023/06/03 05:28:23;;;;;;;;;8.25;6.25;;;;;20.68;46.21;100650.50;146623;579;46010;-64
2023/06/03 05:31:24;;;;;;;;;10.00;9.00;;;;;20.96;45.34;100651.59;146626;613;46012;-64
2023/06/03 05:34:19;;;;;;;;;8.50;8.50;;;;;21.24;45.84;100659.72;146628;564;46010;-64
2023/06/03 05:37:29;;;;;;;;;9.25;9.00;;;;;21.58;45.58;100657.31;146624;637;45916;-64
2023/06/03 05:40:31;;;;;;;;;12.75;11.25;;;;;21.98;45.12;100666.28;146625;615;45010;-64
2023/06/03 05:43:54;;;;;;;;;12.75;10.75;;;;;20.65;45.46;100360.69;146623;664;45017;-64
2023/06/03 05:46:55;;;;;;;;;13.00;11.50;;;;;22.67;43.82;100660.31;146625;606;46010;-62
2023/06/03 05:49:50;;;;;;;;;14.50;12.75;;;;;22.96;42.49;100665.62;146613;635;45914;-63
2023/06/03 05:52:50;;;;;;;;;12.50;11.00;;;;;23.23;42.21;100665.59;146610;636;46020;-65
2023/06/03 05:55:54;;;;;;;;;14.75;10.75;;;;;23.49;43.27;100667.34;146601;644;47012;-66
2023/06/03 05:58:53;;;;;;;;;13.00;12.00;;;;;23.62;41.29;100658.47;146606;703;46010;-64
2023/06/03 06:02:06;;;;;;;;;11.25;10.25;;;;;23.74;42.58;100654.94;146605;571;46016;-65
2023/06/03 06:05:11;;;;;;;;;;;;;;;;;;;;;
2023/06/03 06:08:17;;;;;;;;;15.50;12.25;;;;;24.09;42.27;100660.06;146604;653;46032;-64
2023/06/03 06:11:09;;;;;;;;;10.00;9.00;;;;;24.28;40.21;100665.25;146610;646;46011;-63
2023/06/03 06:14:04;;;;;;;;;11.00;11.00;;;;;24.40;39.86;100663.41;146602;592;47012;-63
2023/06/03 06:16:57;;;;;;;;;10.00;9.00;;;;;24.57;38.62;100665.09;146607;594;46020;-63
2023/06/03 06:19:57;;;;;;;;;8.33;8.33;;;;;24.72;38.50;100664.97;146608;591;46017;-63
2023/06/03 06:23:02;;;;;;;;;12.67;10.67;;;;;24.84;39.26;100674.63;146608;684;46020;-63
2023/06/03 06:26:10;;;;;;;;;9.67;9.00;;;;;24.94;38.64;100670.13;146602;641;47012;-64
2023/06/03 06:29:06;;;;;;;;;11.00;8.33;;;;;25.08;38.38;100670.87;146606;576;46020;-63
2023/06/03 06:32:09;;;;;;;;;10.00;10.00;;;;;25.21;38.29;100669.91;146605;573;46012;-64
2023/06/03 06:35:03;;;;;;;;;9.75;8.00;;;;;25.28;37.90;100673.38;146606;565;46021;-63
2023/06/03 06:38:11;;;;;;;;;12.00;11.75;;;;;25.30;38.20;100669.81;146603;652;46016;-63
2023/06/03 06:41:18;;;;;;;;;;;;;;;;;;;;;
2023/06/03 06:44:23;;;;;;;;;12.75;12.75;;;;;25.44;38.83;100660.81;146603;674;46016;-64
2023/06/03 06:47:38;;;;;;;;;10.75;9.50;;;;;25.61;40.44;100657.97;146606;722;47010;-66
2023/06/03 06:51:14;;;;;;;;;12.50;10.00;;;;;25.88;39.71;100662.09;146605;572;46014;-66
2023/06/03 06:54:22;;;;;;;;;10.25;9.00;;;;;26.15;41.31;100660.87;146607;569;46014;-64
2023/06/03 06:57:39;;;;;;;;;10.75;8.50;;;;;24.15;41.23;100285.66;146604;677;47010;-64
2023/06/03 07:00:48;;;;;;;;;12.25;9.50;;;;;26.38;39.60;100661.41;146606;621;46010;-64
2023/06/03 07:03:55;;;;;;;;;5.00;4.00;;;;;26.43;41.08;100669.31;146607;624;46914;-65
2023/06/03 07:06:57;;;;;;;;;9.50;9.00;;;;;26.52;41.52;100666.56;146607;575;46020;-65
2023/06/03 07:10:08;;;;;;;;;10.75;9.50;;;;;26.54;42.27;100663.84;146603;621;46918;-64
2023/06/03 07:13:08;;;;;;;;;9.75;9.75;;;;;26.51;39.40;100662.12;146606;569;46021;-65
2023/06/03 07:16:48;;;;;;;;;10.00;9.00;;;;;24.31;39.58;100287.22;146603;566;47032;-66
2023/06/03 07:19:43;;;;;;;;;9.25;8.00;;;;;26.59;40.93;100678.84;146608;634;46014;-66
2023/06/03 07:22:51;;;;;;;;;11.00;8.75;;;;;26.41;41.93;100673.78;146606;645;47012;-65
2023/06/03 07:26:09;;;;;;;;;;;;;;;;;;;;;
2023/06/03 07:29:07;;;;;;;;;8.67;8.67;;;;;26.42;40.85;100686.19;146607;576;46016;-65
2023/06/03 07:32:00;;;;;;;;;8.67;8.33;;;;;26.47;38.74;100682.53;146609;627;46010;-66
2023/06/03 07:34:56;;;;;;;;;13.00;11.67;;;;;26.55;40.05;100685.13;146606;565;46016;-65
2023/06/03 07:37:58;;;;;;;;;10.75;10.00;;;;;26.63;40.08;100693.84;146606;578;46010;-65
2023/06/03 07:41:04;;;;;;;;;12.25;11.50;;;;;26.77;39.33;100690.97;146605;646;46916;-65
2023/06/03 07:44:18;;;;;;;;;9.33;9.00;;;;;26.89;40.72;100697.91;146608;592;46020;-66
2023/06/03 07:47:26;;;;;;;;;12.25;12.00;;;;;26.97;38.58;100697.75;146605;661;46016;-65
2023/06/03 07:50:32;;;;;;;;;10.33;9.33;;;;;27.06;40.32;100711.78;146610;683;46010;-65
2023/06/03 07:53:41;;;;;;;;;9.75;9.75;;;;;27.24;39.71;100701.78;146603;572;46012;-65
2023/06/03 07:56:44;;;;;;;;;9.75;8.50;;;;;27.45;39.01;100703.16;146608;569;46011;-65
2023/06/03 07:59:40;;;;;;;;;14.50;12.50;;;;;27.55;37.40;100710.94;146605;570;46016;-65
2023/06/03 08:02:50;;;;;;;;;11.00;11.00;;;;;27.59;39.39;100704.63;146607;663;46010;-65
2023/06/03 08:05:46;;;;;;;;;12.33;12.33;;;;;27.60;36.36;100714.41;146606;583;46034;-64
2023/06/03 08:09:00;;;;;;;;;12.00;9.33;;;;;27.69;37.92;100712.44;146606;654;46020;-64
2023/06/03 08:12:02;;;;;;;;;10.00;10.00;;;;;27.81;37.18;100717.56;146606;637;46012;-65
2023/06/03 08:15:32;;;;;;;;;9.67;8.33;;;;;27.95;39.62;100715.53;146608;698;46010;-64
2023/06/03 08:19:15;;;;;;;;;8.75;8.75;;;;;27.09;38.11;100527.22;146604;627;46013;-66
2023/06/03 08:23:05;;;;;;;;;8.50;8.50;;;;;28.02;38.82;100698.47;146609;701;46020;-64
2023/06/03 08:26:21;;;;;;;;;10.67;8.67;;;;;26.44;39.12;100357.34;146606;645;47032;-65
2023/06/03 08:29:25;;;;;;;;;10.50;10.25;;;;;28.61;37.33;100710.56;146607;739;47010;-66
2023/06/03 08:32:22;;;;;;;;;12.50;10.75;;;;;28.70;36.65;100708.56;146606;573;46013;-65
2023/06/03 08:35:26;;;;;;;;;9.67;8.00;;;;;28.80;38.77;100706.53;146606;602;47010;-65
2023/06/03 08:38:28;;;;;;;;;11.75;10.00;;;;;28.86;36.60;100703.72;146602;606;46016;-65
2023/06/03 08:41:46;;;;;;;;;8.67;8.67;;;;;28.93;39.32;100709.78;146608;569;46010;-66
2023/06/03 08:45:21;;;;;;;;;11.00;9.75;;;;;26.61;39.21;100309.19;146603;607;47016;-64
2023/06/03 08:48:58;;;;;;;;;10.33;10.33;;;;;26.39;39.15;100290.12;146606;581;46020;-65
2023/06/03 08:52:01;;;;;;;;;11.75;10.75;;;;;28.75;38.71;100705.75;146624;569;45018;-64
2023/06/03 08:54:58;;;;;;;;;11.00;11.00;;;;;28.82;37.97;100709.16;146628;584;45021;-65
2023/06/03 08:58:36;;;;;;;;;12.25;9.75;;;;;26.68;39.26;100322.31;146622;563;46014;-64
2023/06/03 09:01:50;;;;;;;;;9.75;8.00;;;;;28.92;39.25;100703.56;146625;572;46015;-65
2023/06/03 09:04:46;;;;;;;;;8.00;8.00;;;;;28.98;35.33;100705.22;146625;579;46016;-65
2023/06/03 09:07:43;;;;;;;;;9.67;9.00;;;;;29.05;36.50;100708.63;146628;569;46010;-64
2023/06/03 09:10:44;;;;;;;;;9.00;8.00;;;;;29.15;37.54;100708.34;146624;569;46913;-64
2023/06/03 09:13:58;;;;;;;;;7.00;6.33;;;;;26.94;37.73;100310.22;146630;579;46010;-65
2023/06/03 09:16:56;;;;;;;;;9.33;9.33;;;;;29.35;35.13;100712.31;146625;729;46914;-65
2023/06/03 09:20:02;;;;;;;;;8.00;8.00;;;;;29.15;34.18;100705.66;146629;573;46010;-65
2023/06/03 09:23:12;;;;;;;;;10.00;9.00;;;;;26.49;36.32;100319.16;146618;573;46012;-66
2023/06/03 09:26:31;;;;;;;;;9.67;8.67;;;;;26.32;36.07;100307.97;146629;577;45021;-64
2023/06/03 09:29:27;;;;;;;;;10.33;10.33;;;;;28.69;35.59;100704.13;146628;662;46010;-65
2023/06/03 09:32:32;;;;;;;;;;;;;;;;;;;;;
2023/06/03 09:35:37;;;;;;;;;10.67;10.00;;;;;28.78;37.71;100706.59;146628;609;45016;-67
2023/06/03 09:38:54;;;;;;;;;11.67;8.00;;;;;28.77;34.94;100712.81;146631;570;45918;-66
2023/06/03 09:41:49;;;;;;;;;10.67;10.00;;;;;28.66;35.76;100711.31;146628;577;46012;-65
2023/06/03 09:45:04;;;;;;;;;12.33;11.00;;;;;28.50;36.94;100710.78;146628;625;45010;-65
2023/06/03 09:48:01;;;;;;;;;6.67;6.67;;;;;28.39;35.40;100716.34;146624;567;45016;-67
2023/06/03 09:50:53;;;;;;;;;9.67;8.67;;;;;28.25;34.52;100710.44;146609;578;46010;-65
2023/06/03 09:54:13;;;;;;;;;9.67;8.33;;;;;28.14;34.86;100712.47;146606;586;46017;-66
2023/06/03 09:57:20;;;;;;;;;12.00;9.33;;;;;28.05;36.83;100705.53;146611;597;46010;-64
2023/06/03 10:00:27;;;;;;;;;10.00;10.00;;;;;28.04;34.92;100712.66;146606;588;46914;-64
2023/06/03 10:03:45;;;;;;;;;6.67;6.33;;;;;28.02;34.46;100711.81;146610;577;46010;-64
2023/06/03 10:06:38;;;;;;;;;8.00;7.00;;;;;28.02;33.60;100709.16;146607;573;46016;-65
2023/06/03 10:09:37;;;;;;;;;9.33;8.33;;;;;28.00;35.34;100710.94;146608;590;46011;-65
2023/06/03 10:12:36;;;;;;;;;10.00;10.00;;;;;27.97;33.72;100705.69;146604;586;46016;-66
2023/06/03 10:15:53;;;;;;;;;10.00;8.00;;;;;24.94;37.76;100192.69;146610;571;46010;-66
2023/06/03 10:19:03;;;;;;;;;8.33;7.67;;;;;28.01;34.20;100706.53;146606;583;46016;-65
2023/06/03 10:22:05;;;;;;;;;4.33;3.33;;;;;28.21;33.88;100706.97;146606;637;47010;-65
2023/06/03 10:25:09;;;;;;;;;9.00;8.67;;;;;28.35;31.30;100717.34;146608;627;46029;-64
2023/06/03 10:28:06;;;;;;;;;7.67;7.67;;;;;28.41;32.35;100709.25;146609;575;46020;-64
2023/06/03 10:31:21;;;;;;;;;8.33;8.00;;;;;28.42;33.94;100705.66;146607;603;46017;-65
2023/06/03 10:34:26;;;;;;;;;8.33;7.00;;;;;28.46;31.10;100715.31;146610;610;46010;-66
2023/06/03 10:37:34;;;;;;;;;9.33;9.33;;;;;28.49;32.32;100699.25;146605;619;46016;-64
2023/06/03 10:40:44;;;;;;;;;7.33;7.00;;;;;28.60;32.60;100696.34;146605;570;46021;-65
2023/06/03 10:43:43;;;;;;;;;8.00;8.00;;;;;28.69;31.74;100706.81;146608;587;46012;-64
2023/06/03 10:46:54;;;;;;;;;6.33;6.00;;;;;28.74;30.29;100704.00;146609;569;46014;-65
2023/06/03 10:50:22;;;;;;;;;7.00;6.00;;;;;28.63;30.36;100706.94;146606;635;46014;-65
2023/06/03 10:54:09;;;;;;;;;6.33;6.33;;;;;26.10;31.81;100293.34;146608;619;46021;-65
2023/06/03 10:57:23;;;;;;;;;8.33;6.33;;;;;26.06;31.29;100297.84;146605;569;46016;-65
2023/06/03 11:00:43;;;;;;;;;8.00;7.67;;;;;28.46;31.00;100701.13;146608;566;46021;-64
2023/06/03 11:04:26;;;;;;;;;10.33;7.67;;;;;26.34;33.32;100311.47;146608;612;46016;-67
2023/06/03 11:07:56;;;;;;;;;7.67;7.00;;;;;26.51;32.06;100316.47;146609;592;46021;-65
2023/06/03 11:10:57;;;;;;;;;8.00;6.67;;;;;28.76;31.96;100694.19;146606;595;46016;-66
2023/06/03 11:14:03;;;;;;;;;10.00;8.00;;;;;28.84;32.59;100685.97;146602;586;47925;-65
2023/06/03 11:17:36;;;;;;;;;8.00;8.00;;;;;26.71;33.16;100302.75;146605;579;46012;-64
2023/06/03 11:21:03;;;;;;;;;7.00;6.00;;;;;26.52;35.07;100248.25;146608;594;46020;-64
2023/06/03 11:24:06;;;;;;;;;7.67;7.67;;;;;29.12;33.25;100686.19;146606;646;46014;-69
2023/06/03 11:27:23;;;;;;;;;;;;;;;;;;;;;
2023/06/03 11:30:27;;;;;;;;;8.33;8.00;;;;;29.21;34.51;100683.28;146606;576;46017;-65
2023/06/03 11:33:30;;;;;;;;;8.00;7.67;;;;;29.28;33.66;100689.31;146608;635;46032;-65
2023/06/03 11:37:01;;;;;;;;;7.33;7.33;;;;;27.45;34.64;100355.22;146604;580;46035;-64
2023/06/03 11:40:25;;;;;;;;;8.00;8.00;;;;;29.52;35.56;100675.31;146609;590;46020;-65
2023/06/03 11:43:19;;;;;;;;;7.67;7.00;;;;;29.67;33.74;100677.59;146604;630;46016;-65
2023/06/03 11:46:25;;;;;;;;;7.00;7.00;;;;;29.74;33.95;100678.28;146606;604;46021;-66
2023/06/03 11:49:24;;;;;;;;;10.00;10.00;;;;;29.72;34.78;100668.56;146608;624;46014;-66
2023/06/03 11:52:28;;;;;;;;;8.67;8.33;;;;;29.69;34.98;100674.87;146610;574;46011;-66
2023/06/03 11:56:15;;;;;;;;;;;;;;;;;;;;;
2023/06/03 11:59:10;;;;;;;;;8.33;7.67;;;;;29.75;33.85;100672.03;146608;579;46020;-65
2023/06/03 12:02:20;;;;;;;;;10.00;8.67;;;;;29.72;34.83;100673.91;146606;564;46014;-65
2023/06/03 12:05:34;;;;;;;;;8.50;8.25;;;;;29.74;34.62;100656.91;146611;667;46014;-65
2023/06/03 12:08:29;;;;;;;;;8.67;7.67;;;;;29.78;35.17;100669.25;146607;570;46017;-66
2023/06/03 12:12:07;;;;;;;;;8.50;8.00;;;;;27.39;36.46;100254.19;146608;569;46012;-65
2023/06/03 12:15:11;;;;;;;;;8.00;8.00;;;;;29.74;37.37;100664.06;146606;573;46016;-66
2023/06/03 12:18:13;;;;;;;;;7.00;7.00;;;;;29.69;36.84;100661.53;146610;588;46010;-67
2023/06/03 12:21:39;;;;;;;;;10.33;9.67;;;;;29.60;38.01;100670.63;146607;582;47012;-65
2023/06/03 12:24:55;;;;;;;;;9.00;8.00;;;;;29.39;37.74;100657.87;146604;572;47010;-66
2023/06/03 12:28:06;;;;;;;;;9.25;9.25;;;;;29.25;38.60;100663.56;146602;563;47012;-68
2023/06/03 12:31:18;;;;;;;;;8.75;6.75;;;;;29.09;39.04;100657.78;146606;565;47011;-67
2023/06/03 12:34:50;;;;;;;;;;;;;;;;;;;;;
2023/06/03 12:38:17;;;;;;;;;9.67;8.67;;;;;28.90;39.48;100648.47;146607;681;46011;-65
2023/06/03 12:41:29;;;;;;;;;3.50;3.50;;;;;26.60;38.90;100238.28;146604;641;47012;-65
2023/06/03 12:44:45;;;;;;;;;7.33;7.00;;;;;28.89;39.75;100639.59;146609;628;46021;-67
2023/06/03 12:47:55;;;;;;;;;10.33;9.00;;;;;28.85;39.10;100632.59;146606;577;46016;-66
2023/06/03 12:51:04;;;;;;;;;9.67;9.67;;;;;28.85;38.31;100637.00;146620;655;46010;-64
2023/06/03 12:54:07;;;;;;;;;12.00;7.00;;;;;28.87;37.76;100635.19;146627;604;46012;-66
2023/06/03 12:57:23;;;;;;;;;9.33;5.00;;;;;28.93;37.61;100635.03;146632;633;45014;-67
2023/06/03 13:00:37;;;;;;;;;13.00;9.00;;;;;26.73;38.16;100255.75;146624;572;45035;-64
2023/06/03 13:03:38;;;;;;;;;9.50;9.50;;;;;28.06;38.11;100486.06;146629;686;45020;-67
2023/06/03 13:06:50;;;;;;;;;9.33;7.00;;;;;26.81;38.27;100268.84;146627;604;45017;-65
2023/06/03 13:10:01;;;;;;;;;;;;;;;;;;;;;
2023/06/03 13:13:12;;;;;;;;;8.33;8.33;;;;;28.93;38.57;100627.03;146627;623;46012;-67
2023/06/03 13:16:20;;;;;;;;;10.00;7.33;;;;;28.94;38.13;100632.34;146629;563;46014;-66
2023/06/03 13:19:31;;;;;;;;;7.33;5.00;;;;;28.96;36.43;100643.84;146625;609;45917;-66
2023/06/03 13:22:37;;;;;;;;;10.25;9.25;;;;;28.95;37.72;100631.41;146628;573;46010;-65
2023/06/03 13:25:44;;;;;;;;;8.00;8.00;;;;;28.93;36.09;100633.25;146626;576;45916;-67
2023/06/03 13:28:51;;;;;;;;;10.25;8.75;;;;;26.55;38.05;100233.09;146628;688;46011;-65
2023/06/03 13:31:53;;;;;;;;;22.75;20.50;;;;;29.02;36.39;100642.84;146624;578;47016;-67
2023/06/03 13:35:11;;;;;;;;;9.50;8.50;;;;;29.14;37.09;100628.31;146626;602;46010;-66
2023/06/03 13:38:05;;;;;;;;;6.00;5.00;;;;;29.26;35.67;100635.97;146628;617;45029;-66
2023/06/03 13:41:22;;;;;;;;;14.50;13.25;;;;;29.35;36.57;100638.41;146627;642;46020;-65
2023/06/03 13:44:23;;;;;;;;;9.33;9.00;;;;;29.41;36.94;100646.25;146628;600;46012;-67
2023/06/03 13:47:33;;;;;;;;;9.50;9.00;;;;;29.45;35.80;100649.69;146630;652;45014;-66
2023/06/03 13:50:33;;;;;;;;;9.75;8.75;;;;;29.45;36.51;100653.25;146606;619;47030;-66
2023/06/03 13:53:42;;;;;;;;;15.25;13.00;;;;;29.29;36.06;100654.59;146607;597;46010;-65
2023/06/03 13:57:01;;;;;;;;;12.25;11.00;;;;;29.18;35.37;100660.19;146602;651;46016;-65
2023/06/03 14:00:00;;;;;;;;;9.00;7.00;;;;;29.13;36.46;100670.16;146609;570;46014;-66
2023/06/03 14:03:00;;;;;;;;;7.00;6.50;;;;;29.18;36.72;100670.00;146606;697;46012;-65
2023/06/03 14:06:01;;;;;;;;;8.00;7.33;;;;;29.28;36.92;100673.31;146607;564;46010;-66
2023/06/03 14:09:05;;;;;;;;;9.33;9.33;;;;;29.37;37.04;100676.59;146606;624;47012;-64
2023/06/03 14:12:19;;;;;;;;;;;;;;;;;;;;;
2023/06/03 14:15:26;;;;;;;;;6.00;6.00;;;;;26.88;36.66;100289.06;146606;641;46016;-66
2023/06/03 14:18:31;;;;;;;;;7.67;7.00;;;;;28.86;36.01;100671.69;146609;595;47010;-66
2023/06/03 14:21:29;;;;;;;;;9.67;8.00;;;;;28.57;36.11;100676.84;146606;565;46914;-67
2023/06/03 14:24:27;;;;;;;;;7.00;7.00;;;;;28.28;36.19;100679.25;146608;638;46020;-66
2023/06/03 14:27:28;;;;;;;;;7.33;7.33;;;;;28.07;37.96;100672.62;146608;583;46016;-66
2023/06/03 14:30:37;;;;;;;;;8.33;7.33;;;;;27.84;36.89;100675.75;146609;579;46010;-65
2023/06/03 14:33:39;;;;;;;;;8.67;8.67;;;;;27.77;38.05;100673.22;146606;619;46016;-65
2023/06/03 14:36:46;;;;;;;;;6.67;6.00;;;;;27.72;38.76;100656.44;146612;590;46010;-67
2023/06/03 14:39:45;;;;;;;;;9.33;8.00;;;;;27.73;39.23;100653.78;146605;590;46016;-66
2023/06/03 14:42:40;;;;;;;;;9.50;8.50;;;;;27.82;38.85;100653.63;146605;680;46021;-66
2023/06/03 14:45:36;;;;;;;;;6.33;6.33;;;;;27.89;40.82;100659.69;146604;579;46016;-66